sensor_id;sensor_type;location;lat;lon;timestamp;pressure;altitude;pressure_sealevel;temperature;humidity
7524;BME280;3803;51.666;7.630;2023-08-07T00:00:19;100404.84;;;16.11;71.14
7524;BME280;3803;51.666;7.630;2023-08-07T00:00:39;100403.06;;;16.11;71.04
7524;BME280;3803;51.666;7.630;2023-08-07T00:01:12;100410.94;;;16.16;70.95
7524;BME280;3803;51.666;7.630;2023-08-07T00:01:33;100396.06;;;16.07;71.26
7524;BME280;3803;51.666;7.630;2023-08-07T00:01:53;100398.69;;;16.10;71.08
7524;BME280;3803;51.666;7.630;2023-08-07T00:02:14;100415.34;;;16.18;70.94
7524;BME280;3803;51.666;7.630;2023-08-07T00:02:35;100407.47;;;16.15;71.17
7524;BME280;3803;51.666;7.630;2023-08-07T00:02:56;100409.22;;;16.13;71.22
7524;BME280;3803;51.666;7.630;2023-08-07T00:03:17;100405.69;;;16.16;71.13
7524;BME280;3803;51.666;7.630;2023-08-07T00:03:39;100403.06;;;16.19;71.28
7524;BME280;3803;51.666;7.630;2023-08-07T00:03:59;100405.72;;;16.14;70.87
7524;BME280;3803;51.666;7.630;2023-08-07T00:04:20;100399.56;;;16.15;71.12
7524;BME280;3803;51.666;7.630;2023-08-07T00:04:41;100407.47;;;16.17;70.89
7524;BME280;3803;51.666;7.630;2023-08-07T00:05:01;100410.09;;;16.17;70.99
7524;BME280;3803;51.666;7.630;2023-08-07T00:05:22;100410.97;;;16.24;70.82
7524;BME280;3803;51.666;7.630;2023-08-07T00:05:45;100407.47;;;16.25;70.84
7524;BME280;3803;51.666;7.630;2023-08-07T00:06:05;100402.19;;;16.11;71.06
7524;BME280;3803;51.666;7.630;2023-08-07T00:06:26;100400.44;;;16.14;71.14
7524;BME280;3803;51.666;7.630;2023-08-07T00:06:47;100394.28;;;16.14;71.12
7524;BME280;3803;51.666;7.630;2023-08-07T00:07:07;100393.41;;;16.15;71.13
7524;BME280;3803;51.666;7.630;2023-08-07T00:07:28;100408.34;;;16.21;70.86
7524;BME280;3803;51.666;7.630;2023-08-07T00:07:48;100402.19;;;16.18;70.92
7524;BME280;3803;51.666;7.630;2023-08-07T00:08:09;100407.47;;;16.28;70.93
7524;BME280;3803;51.666;7.630;2023-08-07T00:08:30;100409.22;;;16.24;70.85
7524;BME280;3803;51.666;7.630;2023-08-07T00:08:51;100403.94;;;16.20;70.91
7524;BME280;3803;51.666;7.630;2023-08-07T00:09:12;100403.06;;;16.17;70.83
7524;BME280;3803;51.666;7.630;2023-08-07T00:09:33;100407.47;;;16.15;70.97
7524;BME280;3803;51.666;7.630;2023-08-07T00:09:54;100406.59;;;16.18;71.03
7524;BME280;3803;51.666;7.630;2023-08-07T00:10:15;100403.94;;;16.20;71.06
7524;BME280;3803;51.666;7.630;2023-08-07T00:10:37;100399.56;;;16.20;70.75
7524;BME280;3803;51.666;7.630;2023-08-07T00:11:09;100405.72;;;16.27;70.68
7524;BME280;3803;51.666;7.630;2023-08-07T00:11:30;100402.16;;;16.23;70.95
7524;BME280;3803;51.666;7.630;2023-08-07T00:11:51;100406.59;;;16.29;70.79
7524;BME280;3803;51.666;7.630;2023-08-07T00:12:11;100390.78;;;16.26;70.79
7524;BME280;3803;51.666;7.630;2023-08-07T00:12:32;100410.97;;;16.27;70.92
7524;BME280;3803;51.666;7.630;2023-08-07T00:12:53;100393.41;;;16.23;70.79
7524;BME280;3803;51.666;7.630;2023-08-07T00:13:14;100398.69;;;16.26;70.82
7524;BME280;3803;51.666;7.630;2023-08-07T00:13:34;100401.34;;;16.29;70.75
7524;BME280;3803;51.666;7.630;2023-08-07T00:13:57;100393.44;;;16.26;70.67
7524;BME280;3803;51.666;7.630;2023-08-07T00:14:18;100398.69;;;16.24;70.47
7524;BME280;3803;51.666;7.630;2023-08-07T00:14:38;100390.78;;;16.24;70.79
7524;BME280;3803;51.666;7.630;2023-08-07T00:14:59;100395.16;;;16.24;70.56
7524;BME280;3803;51.666;7.630;2023-08-07T00:15:21;100394.28;;;16.28;70.56
7524;BME280;3803;51.666;7.630;2023-08-07T00:15:42;100392.53;;;16.22;70.68
7524;BME280;3803;51.666;7.630;2023-08-07T00:16:03;100396.94;;;16.15;70.97
7524;BME280;3803;51.666;7.630;2023-08-07T00:16:23;100390.78;;;16.15;70.82
7524;BME280;3803;51.666;7.630;2023-08-07T00:16:44;100405.72;;;16.14;70.89
7524;BME280;3803;51.666;7.630;2023-08-07T00:17:05;100389.03;;;16.04;71.04
7524;BME280;3803;51.666;7.630;2023-08-07T00:17:26;100400.44;;;16.11;70.91
7524;BME280;3803;51.666;7.630;2023-08-07T00:17:46;100397.81;;;16.08;71.07
7524;BME280;3803;51.666;7.630;2023-08-07T00:18:07;100389.06;;;16.01;71.09
7524;BME280;3803;51.666;7.630;2023-08-07T00:18:28;100405.72;;;16.08;71.09
7524;BME280;3803;51.666;7.630;2023-08-07T00:18:49;100403.97;;;16.07;71.23
7524;BME280;3803;51.666;7.630;2023-08-07T00:19:10;100393.44;;;16.07;71.15
7524;BME280;3803;51.666;7.630;2023-08-07T00:19:31;100396.06;;;16.06;71.19
7524;BME280;3803;51.666;7.630;2023-08-07T00:19:52;100393.44;;;16.07;71.17
7524;BME280;3803;51.666;7.630;2023-08-07T00:20:12;100391.66;;;16.04;71.23
7524;BME280;3803;51.666;7.630;2023-08-07T00:20:33;100389.91;;;16.02;71.12
7524;BME280;3803;51.666;7.630;2023-08-07T00:20:53;100388.16;;;15.95;71.38
7524;BME280;3803;51.666;7.630;2023-08-07T00:21:14;100400.47;;;16.05;71.37
7524;BME280;3803;51.666;7.630;2023-08-07T00:21:35;100389.03;;;16.03;71.37
7524;BME280;3803;51.666;7.630;2023-08-07T00:21:56;100398.69;;;16.12;71.21
7524;BME280;3803;51.666;7.630;2023-08-07T00:22:16;100385.53;;;16.01;71.30
7524;BME280;3803;51.666;7.630;2023-08-07T00:22:37;100404.81;;;16.12;71.30
7524;BME280;3803;51.666;7.630;2023-08-07T00:22:58;100398.69;;;16.10;71.09
7524;BME280;3803;51.666;7.630;2023-08-07T00:23:18;100389.03;;;16.03;71.20
7524;BME280;3803;51.666;7.630;2023-08-07T00:23:39;100398.69;;;16.09;71.19
7524;BME280;3803;51.666;7.630;2023-08-07T00:23:59;100403.94;;;16.15;71.28
7524;BME280;3803;51.666;7.630;2023-08-07T00:24:20;100402.19;;;16.12;71.22
7524;BME280;3803;51.666;7.630;2023-08-07T00:24:41;100386.41;;;16.09;71.37
7524;BME280;3803;51.666;7.630;2023-08-07T00:25:02;100388.16;;;16.04;71.29
7524;BME280;3803;51.666;7.630;2023-08-07T00:25:22;100396.94;;;16.06;71.15
7524;BME280;3803;51.666;7.630;2023-08-07T00:25:44;100389.91;;;16.03;71.16
7524;BME280;3803;51.666;7.630;2023-08-07T00:26:04;100387.28;;;16.08;71.18
7524;BME280;3803;51.666;7.630;2023-08-07T00:26:25;100399.56;;;16.09;71.19
7524;BME280;3803;51.666;7.630;2023-08-07T00:26:46;100388.16;;;16.09;71.03
7524;BME280;3803;51.666;7.630;2023-08-07T00:27:06;100388.16;;;16.10;71.12
7524;BME280;3803;51.666;7.630;2023-08-07T00:27:30;100384.66;;;16.08;71.12
7524;BME280;3803;51.666;7.630;2023-08-07T00:28:15;100403.94;;;16.15;71.15
7524;BME280;3803;51.666;7.630;2023-08-07T00:28:35;100380.25;;;16.06;71.47
7524;BME280;3803;51.666;7.630;2023-08-07T00:28:56;100389.94;;;16.05;71.28
7524;BME280;3803;51.666;7.630;2023-08-07T00:29:17;100392.56;;;16.05;71.47
7524;BME280;3803;51.666;7.630;2023-08-07T00:29:40;100385.53;;;15.99;71.32
7524;BME280;3803;51.666;7.630;2023-08-07T00:30:01;100381.16;;;16.00;71.61
7524;BME280;3803;51.666;7.630;2023-08-07T00:30:22;100388.16;;;16.01;71.48
7524;BME280;3803;51.666;7.630;2023-08-07T00:30:42;100394.28;;;16.03;71.44
7524;BME280;3803;51.666;7.630;2023-08-07T00:31:03;100401.31;;;16.01;71.74
7524;BME280;3803;51.666;7.630;2023-08-07T00:31:23;100396.06;;;15.99;71.55
7524;BME280;3803;51.666;7.630;2023-08-07T00:31:44;100393.44;;;16.02;71.41
7524;BME280;3803;51.666;7.630;2023-08-07T00:32:05;100384.66;;;15.96;71.60
7524;BME280;3803;51.666;7.630;2023-08-07T00:32:26;100389.91;;;16.02;71.62
7524;BME280;3803;51.666;7.630;2023-08-07T00:32:47;100390.78;;;16.06;71.67
7524;BME280;3803;51.666;7.630;2023-08-07T00:33:08;100390.78;;;16.01;71.37
7524;BME280;3803;51.666;7.630;2023-08-07T00:33:28;100398.69;;;16.01;71.58
7524;BME280;3803;51.666;7.630;2023-08-07T00:33:49;100392.56;;;16.05;71.58
7524;BME280;3803;51.666;7.630;2023-08-07T00:34:12;100389.03;;;16.04;71.53
7524;BME280;3803;51.666;7.630;2023-08-07T00:34:32;100391.66;;;16.11;71.48
7524;BME280;3803;51.666;7.630;2023-08-07T00:34:53;100392.53;;;16.07;71.46
7524;BME280;3803;51.666;7.630;2023-08-07T00:35:14;100385.50;;;16.04;71.53
7524;BME280;3803;51.666;7.630;2023-08-07T00:35:34;100393.44;;;16.07;71.54
7524;BME280;3803;51.666;7.630;2023-08-07T00:35:56;100391.66;;;16.03;71.32
7524;BME280;3803;51.666;7.630;2023-08-07T00:36:17;100393.41;;;16.10;71.48
7524;BME280;3803;51.666;7.630;2023-08-07T00:36:37;100388.16;;;16.09;71.36
7524;BME280;3803;51.666;7.630;2023-08-07T00:36:58;100389.03;;;16.04;71.62
7524;BME280;3803;51.666;7.630;2023-08-07T00:37:19;100394.28;;;16.08;71.58
7524;BME280;3803;51.666;7.630;2023-08-07T00:37:39;100390.78;;;16.04;71.51
7524;BME280;3803;51.666;7.630;2023-08-07T00:38:00;100395.16;;;16.13;71.30
7524;BME280;3803;51.666;7.630;2023-08-07T00:38:22;100390.78;;;16.10;71.32
7524;BME280;3803;51.666;7.630;2023-08-07T00:38:42;100390.78;;;16.12;71.20
7524;BME280;3803;51.666;7.630;2023-08-07T00:39:03;100393.44;;;16.13;71.18
7524;BME280;3803;51.666;7.630;2023-08-07T00:39:24;100379.38;;;16.11;71.33
7524;BME280;3803;51.666;7.630;2023-08-07T00:39:45;100384.63;;;16.11;71.21
7524;BME280;3803;51.666;7.630;2023-08-07T00:40:06;100382.03;;;16.08;71.60
7524;BME280;3803;51.666;7.630;2023-08-07T00:40:27;100389.94;;;16.05;71.50
7524;BME280;3803;51.666;7.630;2023-08-07T00:40:48;100396.06;;;16.06;71.57
7524;BME280;3803;51.666;7.630;2023-08-07T00:41:08;100384.63;;;16.07;71.43
7524;BME280;3803;51.666;7.630;2023-08-07T00:41:30;100391.66;;;16.12;71.42
7524;BME280;3803;51.666;7.630;2023-08-07T00:41:51;100389.03;;;16.03;71.46
7524;BME280;3803;51.666;7.630;2023-08-07T00:42:11;100389.03;;;16.08;71.69
7524;BME280;3803;51.666;7.630;2023-08-07T00:42:32;100396.03;;;16.10;71.71
7524;BME280;3803;51.666;7.630;2023-08-07T00:42:53;100394.28;;;16.12;71.52
7524;BME280;3803;51.666;7.630;2023-08-07T00:43:14;100386.38;;;16.08;71.54
7524;BME280;3803;51.666;7.630;2023-08-07T00:43:34;100388.16;;;16.10;71.50
7524;BME280;3803;51.666;7.630;2023-08-07T00:43:55;100385.50;;;16.15;71.50
7524;BME280;3803;51.666;7.630;2023-08-07T00:44:15;100391.66;;;16.15;71.37
7524;BME280;3803;51.666;7.630;2023-08-07T00:44:36;100386.38;;;16.12;71.52
7524;BME280;3803;51.666;7.630;2023-08-07T00:44:57;100383.75;;;16.12;71.50
7524;BME280;3803;51.666;7.630;2023-08-07T00:45:17;100384.63;;;16.16;71.35
7524;BME280;3803;51.666;7.630;2023-08-07T00:45:42;100400.44;;;16.19;71.42
7524;BME280;3803;51.666;7.630;2023-08-07T00:46:03;100392.53;;;16.21;71.44
7524;BME280;3803;51.666;7.630;2023-08-07T00:46:24;100389.91;;;16.17;71.24
7524;BME280;3803;51.666;7.630;2023-08-07T00:46:45;100384.63;;;16.11;71.42
7524;BME280;3803;51.666;7.630;2023-08-07T00:47:06;100395.16;;;16.19;71.39
7524;BME280;3803;51.666;7.630;2023-08-07T00:47:28;100375.84;;;16.12;71.31
7524;BME280;3803;51.666;7.630;2023-08-07T00:47:48;100387.28;;;16.07;71.48
7524;BME280;3803;51.666;7.630;2023-08-07T00:48:10;100385.53;;;16.13;71.79
7524;BME280;3803;51.666;7.630;2023-08-07T00:48:31;100395.16;;;16.16;71.50
7524;BME280;3803;51.666;7.630;2023-08-07T00:48:53;100389.94;;;16.05;71.77
7524;BME280;3803;51.666;7.630;2023-08-07T00:49:14;100389.03;;;16.15;71.55
7524;BME280;3803;51.666;7.630;2023-08-07T00:49:35;100383.78;;;16.17;71.46
7524;BME280;3803;51.666;7.630;2023-08-07T00:49:58;100393.41;;;16.23;71.29
7524;BME280;3803;51.666;7.630;2023-08-07T00:50:19;100386.38;;;16.18;71.28
7524;BME280;3803;51.666;7.630;2023-08-07T00:50:41;100393.41;;;16.24;71.38
7524;BME280;3803;51.666;7.630;2023-08-07T00:51:03;100391.66;;;16.20;71.22
7524;BME280;3803;51.666;7.630;2023-08-07T00:51:25;100383.75;;;16.14;71.34
7524;BME280;3803;51.666;7.630;2023-08-07T00:51:47;100391.66;;;16.18;71.30
7524;BME280;3803;51.666;7.630;2023-08-07T00:52:08;100392.53;;;16.16;71.49
7524;BME280;3803;51.666;7.630;2023-08-07T00:52:29;100378.53;;;16.06;71.41
7524;BME280;3803;51.666;7.630;2023-08-07T00:52:50;100387.28;;;16.10;71.63
7524;BME280;3803;51.666;7.630;2023-08-07T00:53:11;100387.28;;;16.19;71.68
7524;BME280;3803;51.666;7.630;2023-08-07T00:53:31;100398.69;;;16.18;71.49
7524;BME280;3803;51.666;7.630;2023-08-07T00:53:52;100388.16;;;16.13;71.50
7524;BME280;3803;51.666;7.630;2023-08-07T00:54:15;100387.25;;;16.17;71.62
7524;BME280;3803;51.666;7.630;2023-08-07T00:54:38;100388.16;;;16.16;71.72
7524;BME280;3803;51.666;7.630;2023-08-07T00:54:59;100380.25;;;16.15;71.56
7524;BME280;3803;51.666;7.630;2023-08-07T00:55:20;100389.03;;;16.22;71.38
7524;BME280;3803;51.666;7.630;2023-08-07T00:55:41;100386.41;;;16.17;71.60
7524;BME280;3803;51.666;7.630;2023-08-07T00:56:02;100389.88;;;16.16;71.45
7524;BME280;3803;51.666;7.630;2023-08-07T00:56:25;100396.91;;;16.18;71.41
7524;BME280;3803;51.666;7.630;2023-08-07T00:56:46;100389.00;;;16.23;71.49
7524;BME280;3803;51.666;7.630;2023-08-07T00:57:11;100396.03;;;16.23;71.58
7524;BME280;3803;51.666;7.630;2023-08-07T00:57:32;100383.75;;;16.20;71.64
7524;BME280;3803;51.666;7.630;2023-08-07T00:57:53;100382.88;;;16.18;71.54
7524;BME280;3803;51.666;7.630;2023-08-07T00:58:14;100388.13;;;16.15;71.57
7524;BME280;3803;51.666;7.630;2023-08-07T00:58:36;100391.66;;;16.18;71.68
7524;BME280;3803;51.666;7.630;2023-08-07T00:58:58;100387.25;;;16.16;71.66
7524;BME280;3803;51.666;7.630;2023-08-07T00:59:19;100382.88;;;16.16;71.63
7524;BME280;3803;51.666;7.630;2023-08-07T00:59:41;100389.03;;;16.25;71.59
7524;BME280;3803;51.666;7.630;2023-08-07T01:00:03;100391.66;;;16.22;71.78
7524;BME280;3803;51.666;7.630;2023-08-07T01:00:26;100392.53;;;16.24;71.49
7524;BME280;3803;51.666;7.630;2023-08-07T01:00:47;100383.75;;;16.20;71.52
7524;BME280;3803;51.666;7.630;2023-08-07T01:01:08;100384.63;;;16.17;71.61
7524;BME280;3803;51.666;7.630;2023-08-07T01:01:29;100388.13;;;16.20;71.48
7524;BME280;3803;51.666;7.630;2023-08-07T01:01:50;100388.16;;;16.18;71.65
7524;BME280;3803;51.666;7.630;2023-08-07T01:02:12;100395.19;;;16.21;71.62
7524;BME280;3803;51.666;7.630;2023-08-07T01:02:34;100389.91;;;16.24;71.56
7524;BME280;3803;51.666;7.630;2023-08-07T01:02:56;100402.16;;;16.23;71.62
7524;BME280;3803;51.666;7.630;2023-08-07T01:03:16;100391.66;;;16.20;71.78
7524;BME280;3803;51.666;7.630;2023-08-07T01:03:37;100399.53;;;16.23;71.75
7524;BME280;3803;51.666;7.630;2023-08-07T01:03:59;100390.78;;;16.24;71.57
7524;BME280;3803;51.666;7.630;2023-08-07T01:04:21;100387.25;;;16.24;71.43
7524;BME280;3803;51.666;7.630;2023-08-07T01:05:09;100409.22;;;16.37;71.28
7524;BME280;3803;51.666;7.630;2023-08-07T01:05:30;100398.69;;;16.26;71.52
7524;BME280;3803;51.666;7.630;2023-08-07T01:05:51;100393.41;;;16.20;71.61
7524;BME280;3803;51.666;7.630;2023-08-07T01:06:13;100396.94;;;16.25;71.54
7524;BME280;3803;51.666;7.630;2023-08-07T01:06:34;100389.03;;;16.22;71.62
7524;BME280;3803;51.666;7.630;2023-08-07T01:06:54;100403.09;;;16.28;71.57
7524;BME280;3803;51.666;7.630;2023-08-07T01:07:15;100397.81;;;16.27;71.51
7524;BME280;3803;51.666;7.630;2023-08-07T01:07:36;100391.66;;;16.22;71.79
7524;BME280;3803;51.666;7.630;2023-08-07T01:07:56;100400.44;;;16.21;71.73
7524;BME280;3803;51.666;7.630;2023-08-07T01:08:17;100390.75;;;16.20;71.76
7524;BME280;3803;51.666;7.630;2023-08-07T01:08:38;100399.53;;;16.18;72.08
7524;BME280;3803;51.666;7.630;2023-08-07T01:08:59;100393.41;;;16.23;71.75
7524;BME280;3803;51.666;7.630;2023-08-07T01:09:20;100401.31;;;16.24;71.70
7524;BME280;3803;51.666;7.630;2023-08-07T01:09:41;100407.47;;;16.33;71.70
7524;BME280;3803;51.666;7.630;2023-08-07T01:10:01;100403.09;;;16.28;71.48
7524;BME280;3803;51.666;7.630;2023-08-07T01:10:33;100407.47;;;16.28;71.69
7524;BME280;3803;51.666;7.630;2023-08-07T01:11:50;100400.44;;;16.21;71.67
7524;BME280;3803;51.666;7.630;2023-08-07T01:12:25;100402.19;;;16.28;71.64
7524;BME280;3803;51.666;7.630;2023-08-07T01:13:03;100408.34;;;16.30;71.55
7524;BME280;3803;51.666;7.630;2023-08-07T01:13:35;100404.84;;;16.29;71.53
7524;BME280;3803;51.666;7.630;2023-08-07T01:14:55;100404.81;;;16.23;71.66
7524;BME280;3803;51.666;7.630;2023-08-07T01:15:21;100412.75;;;16.31;71.60
7524;BME280;3803;51.666;7.630;2023-08-07T01:15:42;100412.75;;;16.31;71.74
7524;BME280;3803;51.666;7.630;2023-08-07T01:16:10;100409.22;;;16.26;71.64
7524;BME280;3803;51.666;7.630;2023-08-07T01:17:09;100402.19;;;16.36;71.37
7524;BME280;3803;51.666;7.630;2023-08-07T01:17:31;100409.22;;;16.38;71.11
7524;BME280;3803;51.666;7.630;2023-08-07T01:17:55;100405.69;;;16.42;71.20
7524;BME280;3803;51.666;7.630;2023-08-07T01:18:17;100408.34;;;16.39;71.21
7524;BME280;3803;51.666;7.630;2023-08-07T01:18:38;100410.09;;;16.42;71.28
7524;BME280;3803;51.666;7.630;2023-08-07T01:19:01;100398.66;;;16.35;71.53
7524;BME280;3803;51.666;7.630;2023-08-07T01:19:25;100407.47;;;16.34;71.26
7524;BME280;3803;51.666;7.630;2023-08-07T01:19:47;100409.22;;;16.32;71.41
7524;BME280;3803;51.666;7.630;2023-08-07T01:20:08;100400.44;;;16.27;71.50
7524;BME280;3803;51.666;7.630;2023-08-07T01:20:29;100403.09;;;16.30;71.48
7524;BME280;3803;51.666;7.630;2023-08-07T01:20:50;100411.88;;;16.34;71.40
7524;BME280;3803;51.666;7.630;2023-08-07T01:21:21;100402.19;;;16.34;71.48
7524;BME280;3803;51.666;7.630;2023-08-07T01:21:46;100397.78;;;16.22;71.68
7524;BME280;3803;51.666;7.630;2023-08-07T01:22:10;100404.84;;;16.31;71.40
7524;BME280;3803;51.666;7.630;2023-08-07T01:22:32;100400.44;;;16.28;71.65
7524;BME280;3803;51.666;7.630;2023-08-07T01:22:53;100401.34;;;16.34;71.52
7524;BME280;3803;51.666;7.630;2023-08-07T01:23:13;100403.94;;;16.35;71.45
7524;BME280;3803;51.666;7.630;2023-08-07T01:23:34;100402.19;;;16.34;71.33
7524;BME280;3803;51.666;7.630;2023-08-07T01:23:55;100411.84;;;16.21;71.78
7524;BME280;3803;51.666;7.630;2023-08-07T01:24:15;100412.72;;;16.22;71.78
7524;BME280;3803;51.666;7.630;2023-08-07T01:24:37;100402.22;;;16.25;71.89
7524;BME280;3803;51.666;7.630;2023-08-07T01:24:58;100409.22;;;16.23;71.73
7524;BME280;3803;51.666;7.630;2023-08-07T01:25:18;100413.59;;;16.22;72.08
7524;BME280;3803;51.666;7.630;2023-08-07T01:25:39;100400.44;;;16.24;71.77
7524;BME280;3803;51.666;7.630;2023-08-07T01:26:01;100401.31;;;16.21;71.77
7524;BME280;3803;51.666;7.630;2023-08-07T01:26:21;100413.63;;;16.25;71.80
7524;BME280;3803;51.666;7.630;2023-08-07T01:26:44;100414.47;;;16.24;72.04
7524;BME280;3803;51.666;7.630;2023-08-07T01:27:14;100413.63;;;16.28;71.79
7524;BME280;3803;51.666;7.630;2023-08-07T01:27:42;100416.25;;;16.27;71.62
7524;BME280;3803;51.666;7.630;2023-08-07T01:28:19;100414.47;;;16.30;71.76
7524;BME280;3803;51.666;7.630;2023-08-07T01:29:09;100424.16;;;16.25;71.82
7524;BME280;3803;51.666;7.630;2023-08-07T01:29:41;100414.47;;;16.20;72.20
7524;BME280;3803;51.666;7.630;2023-08-07T01:30:17;100406.56;;;16.23;71.95
7524;BME280;3803;51.666;7.630;2023-08-07T01:30:42;100408.31;;;16.24;71.87
7524;BME280;3803;51.666;7.630;2023-08-07T01:31:09;100410.94;;;16.22;71.87
7524;BME280;3803;51.666;7.630;2023-08-07T01:31:33;100424.13;;;16.24;72.10
7524;BME280;3803;51.666;7.630;2023-08-07T01:31:55;100417.13;;;16.30;71.89
7524;BME280;3803;51.666;7.630;2023-08-07T01:32:29;100408.38;;;16.25;71.64
7524;BME280;3803;51.666;7.630;2023-08-07T01:33:29;100415.38;;;16.37;71.83
7524;BME280;3803;51.666;7.630;2023-08-07T01:34:02;100417.13;;;16.32;71.58
7524;BME280;3803;51.666;7.630;2023-08-07T01:34:25;100413.63;;;16.28;71.59
7524;BME280;3803;51.666;7.630;2023-08-07T01:34:47;100413.59;;;16.14;71.88
7524;BME280;3803;51.666;7.630;2023-08-07T01:35:11;100413.59;;;16.22;71.86
7524;BME280;3803;51.666;7.630;2023-08-07T01:35:35;100422.41;;;16.27;71.88
7524;BME280;3803;51.666;7.630;2023-08-07T01:36:02;100409.22;;;16.23;71.79
7524;BME280;3803;51.666;7.630;2023-08-07T01:36:27;100428.53;;;16.31;71.73
7524;BME280;3803;51.666;7.630;2023-08-07T01:36:50;100414.50;;;16.26;71.61
7524;BME280;3803;51.666;7.630;2023-08-07T01:37:12;100423.28;;;16.25;71.70
7524;BME280;3803;51.666;7.630;2023-08-07T01:37:38;100419.75;;;16.26;72.09
7524;BME280;3803;51.666;7.630;2023-08-07T01:38:00;100424.16;;;16.25;71.80
7524;BME280;3803;51.666;7.630;2023-08-07T01:38:24;100426.78;;;16.33;71.65
7524;BME280;3803;51.666;7.630;2023-08-07T01:38:47;100415.34;;;16.28;71.69
7524;BME280;3803;51.666;7.630;2023-08-07T01:39:10;100421.53;;;16.30;71.33
7524;BME280;3803;51.666;7.630;2023-08-07T01:39:31;100427.66;;;16.32;71.65
7524;BME280;3803;51.666;7.630;2023-08-07T01:39:53;100419.72;;;16.35;71.55
7524;BME280;3803;51.666;7.630;2023-08-07T01:40:15;100411.88;;;16.27;71.31
7524;BME280;3803;51.666;7.630;2023-08-07T01:40:38;100420.63;;;16.31;71.37
7524;BME280;3803;51.666;7.630;2023-08-07T01:41:00;100414.50;;;16.32;71.57
7524;BME280;3803;51.666;7.630;2023-08-07T01:41:21;100417.13;;;16.29;71.40
7524;BME280;3803;51.666;7.630;2023-08-07T01:41:41;100409.22;;;16.30;71.45
7524;BME280;3803;51.666;7.630;2023-08-07T01:42:03;100423.28;;;16.26;71.51
7524;BME280;3803;51.666;7.630;2023-08-07T01:42:25;100425.00;;;16.24;71.57
7524;BME280;3803;51.666;7.630;2023-08-07T01:42:46;100432.03;;;16.31;71.58
7524;BME280;3803;51.666;7.630;2023-08-07T01:43:08;100432.88;;;16.15;71.69
7524;BME280;3803;51.666;7.630;2023-08-07T01:43:29;100425.88;;;16.11;72.09
7524;BME280;3803;51.666;7.630;2023-08-07T01:43:51;100425.03;;;15.98;72.20
7524;BME280;3803;51.666;7.630;2023-08-07T01:44:12;100424.13;;;16.03;72.45
7524;BME280;3803;51.666;7.630;2023-08-07T01:44:33;100418.88;;;16.02;72.68
7524;BME280;3803;51.666;7.630;2023-08-07T01:44:54;100425.88;;;16.00;72.56
7524;BME280;3803;51.666;7.630;2023-08-07T01:45:25;100424.13;;;15.97;72.50
7524;BME280;3803;51.666;7.630;2023-08-07T01:45:46;100433.78;;;16.06;72.78
7524;BME280;3803;51.666;7.630;2023-08-07T01:46:06;100423.25;;;16.00;72.68
7524;BME280;3803;51.666;7.630;2023-08-07T01:46:27;100412.72;;;16.00;72.65
7524;BME280;3803;51.666;7.630;2023-08-07T01:46:48;100425.00;;;15.95;72.88
7524;BME280;3803;51.666;7.630;2023-08-07T01:47:08;100421.50;;;15.99;72.63
7524;BME280;3803;51.666;7.630;2023-08-07T01:47:29;100414.50;;;15.96;72.65
7524;BME280;3803;51.666;7.630;2023-08-07T01:47:50;100429.41;;;16.05;72.73
7524;BME280;3803;51.666;7.630;2023-08-07T01:48:11;100414.47;;;15.95;72.70
7524;BME280;3803;51.666;7.630;2023-08-07T01:48:32;100428.53;;;15.97;72.82
7524;BME280;3803;51.666;7.630;2023-08-07T01:48:52;100427.63;;;16.04;72.65
7524;BME280;3803;51.666;7.630;2023-08-07T01:49:13;100419.72;;;15.88;72.81
7524;BME280;3803;51.666;7.630;2023-08-07T01:49:34;100425.00;;;15.92;72.85
7524;BME280;3803;51.666;7.630;2023-08-07T01:49:54;100426.75;;;15.93;72.90
7524;BME280;3803;51.666;7.630;2023-08-07T01:50:15;100411.88;;;15.93;72.65
7524;BME280;3803;51.666;7.630;2023-08-07T01:50:36;100429.38;;;15.91;72.81
7524;BME280;3803;51.666;7.630;2023-08-07T01:50:57;100416.25;;;15.93;72.87
7524;BME280;3803;51.666;7.630;2023-08-07T01:51:18;100418.88;;;15.99;72.87
7524;BME280;3803;51.666;7.630;2023-08-07T01:51:38;100423.25;;;16.00;72.73
7524;BME280;3803;51.666;7.630;2023-08-07T01:51:59;100433.78;;;15.97;73.03
7524;BME280;3803;51.666;7.630;2023-08-07T01:52:20;100427.63;;;15.90;72.93
7524;BME280;3803;51.666;7.630;2023-08-07T01:52:41;100430.28;;;15.98;72.86
7524;BME280;3803;51.666;7.630;2023-08-07T01:53:02;100429.41;;;16.03;72.72
7524;BME280;3803;51.666;7.630;2023-08-07T01:53:23;100425.88;;;16.00;72.73
7524;BME280;3803;51.666;7.630;2023-08-07T01:53:44;100431.16;;;16.01;72.59
7524;BME280;3803;51.666;7.630;2023-08-07T01:54:04;100421.50;;;15.94;72.66
7524;BME280;3803;51.666;7.630;2023-08-07T01:54:25;100430.28;;;16.02;72.75
7524;BME280;3803;51.666;7.630;2023-08-07T01:54:45;100423.28;;;15.97;72.53
7524;BME280;3803;51.666;7.630;2023-08-07T01:55:06;100425.88;;;15.94;72.75
7524;BME280;3803;51.666;7.630;2023-08-07T01:55:30;100432.91;;;15.96;72.64
7524;BME280;3803;51.666;7.630;2023-08-07T01:55:54;100437.28;;;16.03;72.79
7524;BME280;3803;51.666;7.630;2023-08-07T01:56:14;100425.88;;;15.92;72.62
7524;BME280;3803;51.666;7.630;2023-08-07T01:56:35;100438.16;;;15.96;72.81
7524;BME280;3803;51.666;7.630;2023-08-07T01:56:56;100432.91;;;15.98;72.73
7524;BME280;3803;51.666;7.630;2023-08-07T01:57:16;100431.16;;;16.06;72.54
7524;BME280;3803;51.666;7.630;2023-08-07T01:57:37;100425.03;;;15.98;72.49
7524;BME280;3803;51.666;7.630;2023-08-07T01:57:58;100442.53;;;15.96;72.40
7524;BME280;3803;51.666;7.630;2023-08-07T01:58:19;100418.88;;;15.88;72.76
7524;BME280;3803;51.666;7.630;2023-08-07T01:58:39;100430.25;;;15.95;72.70
7524;BME280;3803;51.666;7.630;2023-08-07T01:59:00;100424.13;;;15.88;73.02
7524;BME280;3803;51.666;7.630;2023-08-07T01:59:21;100425.00;;;15.96;72.55
7524;BME280;3803;51.666;7.630;2023-08-07T01:59:41;100423.25;;;16.09;72.43
7524;BME280;3803;51.666;7.630;2023-08-07T02:00:02;100428.50;;;16.18;72.16
7524;BME280;3803;51.666;7.630;2023-08-07T02:00:35;100439.06;;;16.06;72.16
7524;BME280;3803;51.666;7.630;2023-08-07T02:00:56;100428.50;;;16.03;72.18
7524;BME280;3803;51.666;7.630;2023-08-07T02:01:16;100427.63;;;16.06;72.16
7524;BME280;3803;51.666;7.630;2023-08-07T02:01:37;100418.88;;;16.05;72.15
7524;BME280;3803;51.666;7.630;2023-08-07T02:01:58;100422.38;;;16.02;72.26